Terminal Aerodrome Forecast
Issued by NWS

Home | Current Version | Previous Version | Text Only | Print | Product List | Glossary On
Versions: 1 2 3 4 5 6 7 8 9 10 11 12 13 14 15 16 17 18 19 20 21 22 23 24 25 26 27 28 29 30 31 32 33
000
FTUS43 KABR 271400 AAB
TAFPIR
TAF AMD
KPIR 271459Z 2715/2812 09006KT 4SM BR OVC002
     FM272200 11009KT P6SM VCSH SCT020 BKN035 OVC100
     FM280600 10006KT P6SM OVC015=

USA.gov is the U.S. government's official web portal to all federal, state and local government web resources and services.